| time (UTC) | temp F | wind direction | speed knots | gust knots | rain 1hr in | rain 24hr in | rain mn in | humidity % | barometer mb |
| 20260906073524 | 78 | 26 | 0.0 | 0.0 | 0.00 | 0.00 | 0.00 | 41 | 1010.8 |
| 20260906072016 | 79 | 26 | 0.0 | 0.0 | 0.00 | 0.00 | 0.00 | 42 | 1010.8 |
| 20260906070533 | 79 | 26 | 0.0 | 0.0 | 0.00 | 0.00 | 0.00 | 41 | 1010.6 |
| 20260906065043 | 79 | 26 | 0.0 | 0.0 | 0.00 | 0.00 | 0.00 | 39 | 1010.7 |
| 20260906063522 | 79 | 26 | 0.0 | 0.0 | 0.00 | 0.00 | 0.00 | 38 | 1010.8 |
| 20260906062020 | 79 | 26 | 0.0 | 0.0 | 0.00 | 0.00 | 0.00 | 38 | 1010.9 |
| 20260906060518 | 80 | 26 | 0.0 | 0.0 | 0.00 | 0.00 | 0.00 | 38 | 1010.8 |
| 20260906055042 | 79 | 26 | 0.0 | 0.0 | 0.00 | 0.00 | 0.00 | 37 | 1010.8 |
| 20260906053519 | 79 | 26 | 0.0 | 0.0 | 0.00 | 0.00 | 0.00 | 37 | 1010.8 |
| 20260906052039 | 80 | 26 | 0.0 | 0.0 | 0.00 | 0.00 | 0.00 | 36 | 1010.9 |
| 20260906050516 | 80 | 26 | 0.0 | 0.0 | 0.00 | 0.00 | 0.00 | 35 | 1010.9 |
| 20260906045055 | 80 | 26 | 0.0 | 0.0 | 0.00 | 0.00 | 0.00 | 34 | 1011.0 |
| 20260906043532 | 79 | 28 | 0.0 | 0.0 | 0.00 | 0.00 | 0.00 | 35 | 1011.0 |
| 20260906042030 | 80 | 30 | 0.0 | 0.0 | 0.00 | 0.00 | 0.00 | 33 | 1011.0 |
| 20260906040531 | 80 | 311 | 0.0 | 0.0 | 0.00 | 0.00 | 0.00 | 34 | 1010.9 |
| 20260906035028 | 80 | 312 | 0.0 | 0.0 | 0.00 | 0.00 | 0.00 | 35 | 1010.7 |
| 20260906033527 | 80 | 312 | 0.0 | 0.0 | 0.00 | 0.00 | 0.00 | 35 | 1010.6 |
| 20260906032019 | 80 | 312 | 0.0 | 0.0 | 0.00 | 0.00 | 0.00 | 35 | 1010.4 |
| 20260906030518 | 80 | 311 | 0.0 | 1.7 | 0.00 | 0.00 | 0.00 | 40 | 1010.4 |
| 20260906025015 | 81 | 304 | 0.0 | 0.0 | 0.00 | 0.00 | 0.00 | 45 | 1010.3 |
| 20260906023537 | 81 | 304 | 0.0 | 1.7 | 0.00 | 0.00 | 0.00 | 41 | 1010.3 |
| 20260906022015 | 82 | 303 | 0.0 | 0.9 | 0.00 | 0.00 | 0.00 | 38 | 1010.2 |
| 20260906020516 | 83 | 299 | 0.0 | 1.7 | 0.00 | 0.00 | 0.00 | 38 | 1010.1 |
| 20260906015034 | 84 | 281 | 0.0 | 6.1 | 0.00 | 0.00 | 0.00 | 40 | 1010.2 |
| 20260906013518 | 85 | 284 | 0.0 | 6.1 | 0.00 | 0.00 | 0.00 | 36 | 1010.2 |
| 20260906012018 | 87 | 281 | 0.9 | 6.1 | 0.00 | 0.00 | 0.00 | 33 | 1010.2 |
| 20260906010518 | 88 | 289 | 0.0 | 6.1 | 0.00 | 0.00 | 0.00 | 33 | 1010.1 |
| 20260906005055 | 88 | 287 | 0.9 | 4.3 | 0.00 | 0.00 | 0.00 | 36 | 1010.1 |
| 20260906003516 | 88 | 299 | 0.9 | 5.2 | 0.00 | 0.00 | 0.00 | 40 | 1010.1 |
| 20260906002032 | 88 | 298 | 1.7 | 7.8 | 0.00 | 0.00 | 0.00 | 42 | 1010.0 |
| 20260906000532 | 89 | 288 | 0.9 | 6.1 | 0.00 | 0.00 | 0.00 | 42 | 1010.1 |
| 20260905235025 | 90 | 275 | 2.6 | 8.7 | 0.00 | 0.00 | 0.00 | 39 | 1009.9 |
| 20260905233525 | 91 | 277 | 0.9 | 7.0 | 0.00 | 0.00 | 0.00 | 34 | 1010.0 |
| 20260905232024 | 92 | 307 | 1.7 | 5.2 | 0.00 | 0.00 | 0.00 | 28 | 1010.1 |
| 20260905230545 | 92 | 277 | 2.6 | 8.7 | 0.00 | 0.00 | 0.00 | 25 | 1010.0 |
| 20260905225040 | 92 | 248 | 1.7 | 8.7 | 0.00 | 0.00 | 0.00 | 29 | 1010.1 |
| 20260905223522 | 93 | 246 | 0.9 | 7.8 | 0.00 | 0.00 | 0.00 | 27 | 1010.1 |
| 20260905222040 | 93 | 246 | 0.9 | 4.3 | 0.00 | 0.00 | 0.00 | 26 | 1010.3 |
| 20260905220517 | 92 | 271 | 4.3 | 7.8 | 0.00 | 0.00 | 0.00 | 25 | 1010.5 |
| 20260905215031 | 92 | 206 | 0.0 | 7.8 | 0.00 | 0.00 | 0.00 | 28 | 1010.6 |
| 20260905213532 | 93 | 290 | 2.6 | 8.7 | 0.00 | 0.00 | 0.00 | 26 | 1010.7 |
| 20260905212029 | 93 | 269 | 0.9 | 8.7 | 0.00 | 0.00 | 0.00 | 27 | 1010.8 |
| 20260905210530 | 93 | 269 | 4.3 | 9.6 | 0.00 | 0.00 | 0.00 | 28 | 1010.8 |
| 20260905205026 | 93 | 246 | 0.9 | 8.7 | 0.00 | 0.00 | 0.00 | 28 | 1010.9 |
| 20260905203527 | 93 | 269 | 1.7 | 7.0 | 0.00 | 0.00 | 0.00 | 26 | 1011.1 |
| 20260905202023 | 93 | 253 | 1.7 | 7.8 | 0.00 | 0.00 | 0.00 | 24 | 1011.3 |
| 20260905200516 | 93 | 284 | 0.9 | 7.0 | 0.00 | 0.00 | 0.00 | 24 | 1011.4 |
| 20260905195033 | 92 | 261 | 0.9 | 7.8 | 0.00 | 0.00 | 0.00 | 25 | 1011.4 |
| 20260905193529 | 92 | 268 | 0.0 | 5.2 | 0.00 | 0.00 | 0.00 | 19 | 1011.6 |
| 20260905192021 | 90 | 256 | 0.0 | 7.0 | 0.00 | 0.00 | 0.00 | 20 | 1011.7 |
| 20260905190535 | 91 | 218 | 0.0 | 3.5 | 0.00 | 0.00 | 0.00 | 22 | 1012.0 |
| 20260905185027 | 89 | 259 | 0.0 | 7.0 | 0.00 | 0.00 | 0.00 | 23 | 1012.2 |
| 20260905183520 | 89 | 248 | 0.9 | 5.2 | 0.00 | 0.00 | 0.00 | 23 | 1012.4 |
| 20260905182026 | 86 | 269 | 0.0 | 5.2 | 0.00 | 0.00 | 0.00 | 31 | 1012.4 |
| 20260905180518 | 85 | 250 | 0.0 | 0.0 | 0.00 | 0.00 | 0.00 | 33 | 1012.6 |
| 20260905175026 | 83 | 290 | 0.0 | 0.0 | 0.00 | 0.00 | 0.00 | 35 | 1012.5 |
| 20260905173519 | 82 | 296 | 0.0 | 0.0 | 0.00 | 0.00 | 0.00 | 36 | 1012.4 |
| 20260905172027 | 80 | 299 | 0.0 | 0.0 | 0.00 | 0.00 | 0.00 | 40 | 1012.3 |
| 20260905170522 | 79 | 302 | 0.0 | 0.0 | 0.00 | 0.00 | 0.00 | 45 | 1012.1 |
| 20260905165017 | 79 | 339 | 0.0 | 0.0 | 0.00 | 0.00 | 0.00 | 44 | 1012.3 |
| 20260905163529 | 79 | 355 | 0.0 | 0.0 | 0.00 | 0.00 | 0.00 | 41 | 1012.2 |
| 20260905162016 | 77 | 355 | 0.0 | 0.0 | 0.00 | 0.00 | 0.00 | 42 | 1012.0 |
| 20260905160526 | 75 | 355 | 0.0 | 0.0 | 0.00 | 0.00 | 0.00 | 45 | 1012.1 |
| 20260905155034 | 73 | 355 | 0.0 | 0.0 | 0.00 | 0.00 | 0.00 | 50 | 1012.1 |
| 20260905153523 | 72 | 355 | 0.0 | 0.0 | 0.00 | 0.00 | 0.00 | 50 | 1012.2 |
| 20260905152033 | 71 | 355 | 0.0 | 0.0 | 0.00 | 0.00 | 0.00 | 51 | 1012.0 |
| 20260905150522 | 69 | 355 | 0.0 | 0.0 | 0.00 | 0.00 | 0.00 | 54 | 1011.9 |
| 20260905145032 | 68 | 355 | 0.0 | 0.0 | 0.00 | 0.00 | 0.00 | 58 | 1011.8 |
| 20260905143526 | 67 | 355 | 0.0 | 0.0 | 0.00 | 0.00 | 0.00 | 61 | 1011.7 |
| 20260905142048 | 66 | 323 | 0.0 | 0.0 | 0.00 | 0.00 | 0.00 | 68 | 1011.7 |
| 20260905140520 | 65 | 318 | 0.0 | 0.0 | 0.00 | 0.00 | 0.00 | 70 | 1011.5 |
| 20260905135030 | 64 | 317 | 0.0 | 0.0 | 0.00 | 0.00 | 0.00 | 73 | 1011.4 |
| 20260905133540 | 63 | 313 | 0.0 | 0.0 | 0.00 | 0.00 | 0.00 | 77 | 1011.2 |
| 20260905132052 | 63 | 311 | 0.0 | 0.0 | 0.00 | 0.00 | 0.00 | 77 | 1011.1 |
| 20260905130550 | 63 | 312 | 0.0 | 0.0 | 0.00 | 0.00 | 0.00 | 77 | 1011.0 |
| 20260905125027 | 64 | 311 | 0.0 | 0.0 | 0.00 | 0.00 | 0.00 | 76 | 1010.8 |
| 20260905123527 | 63 | 311 | 0.0 | 0.0 | 0.00 | 0.00 | 0.00 | 77 | 1010.8 |
| 20260905122023 | 63 | 311 | 0.0 | 0.0 | 0.00 | 0.00 | 0.00 | 77 | 1010.7 |
| 20260905120523 | 63 | 311 | 0.0 | 0.0 | 0.00 | 0.00 | 0.00 | 78 | 1010.8 |
| 20260905115020 | 63 | 311 | 0.0 | 0.0 | 0.00 | 0.00 | 0.00 | 78 | 1010.9 |
| 20260905113520 | 63 | 311 | 0.0 | 0.0 | 0.00 | 0.00 | 0.00 | 79 | 1011.0 |
| 20260905112019 | 63 | 311 | 0.0 | 0.0 | 0.00 | 0.00 | 0.00 | 80 | 1011.0 |
| 20260905110517 | 63 | 311 | 0.0 | 0.0 | 0.00 | 0.00 | 0.00 | 81 | 1011.1 |
| 20260905105032 | 63 | 311 | 0.0 | 0.0 | 0.00 | 0.00 | 0.00 | 81 | 1011.2 |
| 20260905103532 | 63 | 311 | 0.0 | 0.0 | 0.00 | 0.00 | 0.00 | 82 | 1011.2 |
| 20260905102031 | 63 | 311 | 0.0 | 0.0 | 0.00 | 0.00 | 0.00 | 82 | 1011.2 |
| 20260905100529 | 63 | 311 | 0.0 | 0.0 | 0.00 | 0.00 | 0.00 | 82 | 1011.4 |
| 20260905095022 | 63 | 311 | 0.0 | 0.0 | 0.00 | 0.00 | 0.00 | 82 | 1011.2 |
| 20260905093519 | 63 | 311 | 0.0 | 0.0 | 0.00 | 0.00 | 0.00 | 82 | 1011.3 |
| 20260905092014 | 63 | 311 | 0.0 | 0.0 | 0.00 | 0.00 | 0.00 | 81 | 1011.2 |
| 20260905090554 | 64 | 311 | 0.0 | 0.0 | 0.00 | 0.00 | 0.00 | 81 | 1011.3 |
| 20260905085025 | 64 | 311 | 0.0 | 0.0 | 0.00 | 0.00 | 0.00 | 82 | 1011.4 |
| 20260905083523 | 65 | 311 | 0.0 | 0.0 | 0.00 | 0.00 | 0.00 | 82 | 1011.6 |
| 20260905082019 | 64 | 298 | 0.0 | 0.0 | 0.00 | 0.00 | 0.00 | 83 | 1011.8 |
| 20260905080519 | 64 | 277 | 0.0 | 0.0 | 0.00 | 0.00 | 0.00 | 83 | 1012.0 |
| 20260905075016 | 64 | 271 | 0.0 | 0.0 | 0.00 | 0.00 | 0.00 | 83 | 1012.0 |